Time;durP1;ratioP1;P1;durP2;ratioP2;P2;SDS_P1;SDS_P2;PMS_P1;PMS_P2;Temp;Humidity;BMP_temperature;BMP_pressure;BME280_temperature;BME280_humidity;BME280_pressure;Samples;Min_cycle;Max_cycle;Signal;HPM_P1;HPM_P2
2023/09/02 00:02:23;;;;;;;23.35;8.68;;;;;;;19.14;66.95;99306.13;5021758;28;20119;-41
2023/09/02 00:04:49;;;;;;;18.20;9.38;;;;;;;19.13;66.93;99293.06;5026443;28;20049;-41
2023/09/02 00:07:14;;;;;;;19.67;9.27;;;;;;;19.15;66.70;99309.63;5027537;28;20132;-41
2023/09/02 00:09:40;;;;;;;20.95;8.15;;;;;;;19.14;66.82;99306.13;5024621;28;20095;-41
2023/09/02 00:12:07;;;;;;;16.85;8.65;;;;;;;19.12;67.41;99304.56;5021494;28;20496;-42
2023/09/02 00:14:33;;;;;;;21.30;9.00;;;;;;;19.10;67.56;99293.31;5026164;28;20156;-41
2023/09/02 00:16:59;;;;;;;17.67;8.73;;;;;;;19.11;67.90;99302.88;5024448;28;20124;-41
2023/09/02 00:19:25;;;;;;;17.13;9.05;;;;;;;19.10;67.94;99291.50;5025611;28;20513;-40
2023/09/02 00:21:50;;;;;;;18.17;9.27;;;;;;;19.09;67.70;99300.38;5025762;28;20102;-41
2023/09/02 00:24:16;;;;;;;19.55;8.60;;;;;;;19.09;67.63;99294.25;5027296;28;20043;-42
2023/09/02 00:26:42;;;;;;;15.88;9.32;;;;;;;19.06;67.94;99290.03;5026245;28;20464;-41
2023/09/02 00:29:08;;;;;;;15.65;9.20;;;;;;;19.01;68.30;99286.91;5025080;28;20057;-40
2023/09/02 00:31:34;;;;;;;15.88;9.00;;;;;;;19.00;68.55;99291.34;5018328;28;20041;-43
2023/09/02 00:34:00;;;;;;;17.17;8.82;;;;;;;18.96;68.63;99282.00;5025546;28;20079;-40
2023/09/02 00:36:30;;;;;;;19.63;9.35;;;;;;;18.98;68.69;99289.78;5009202;28;20047;-41
2023/09/02 00:38:57;;;;;;;18.17;9.45;;;;;;;18.96;68.92;99292.53;5027824;28;20477;-40
2023/09/02 00:41:39;;;;;;;14.82;8.70;;;;;;;18.94;69.21;99294.47;5024783;28;20096;-40
2023/09/02 00:44:06;;;;;;;18.98;9.27;;;;;;;18.93;69.14;99289.31;5026017;28;20037;-42
2023/09/02 00:46:31;;;;;;;21.00;10.10;;;;;;;18.93;69.29;99292.78;5021498;28;20049;-41
2023/09/02 00:48:57;;;;;;;15.70;8.80;;;;;;;18.90;69.29;99286.88;5044844;28;20053;-40
2023/09/02 00:51:25;;;;;;;23.50;9.48;;;;;;;18.89;69.45;99287.84;5024951;28;20052;-42
2023/09/02 00:53:50;;;;;;;15.93;9.13;;;;;;;18.85;69.42;99281.97;5009586;28;20145;-41
2023/09/02 00:56:17;;;;;;;15.68;8.90;;;;;;;18.89;69.54;99287.84;5007086;28;20506;-40
2023/09/02 00:58:44;;;;;;;16.80;8.43;;;;;;;18.70;69.19;99254.13;5022167;28;20037;-41
2023/09/02 01:01:10;;;;;;;17.83;8.25;;;;;;;18.89;69.25;99278.13;5024546;28;20072;-40
2023/09/02 01:03:38;;;;;;;13.18;7.78;;;;;;;18.87;69.12;99287.97;5020038;28;20076;-41
2023/09/02 01:06:05;;;;;;;12.85;7.88;;;;;;;18.90;69.10;99286.88;5003937;28;20429;-41
2023/09/02 01:08:31;;;;;;;15.90;8.43;;;;;;;18.91;68.89;99280.66;5025140;28;20084;-42
2023/09/02 01:11:00;;;;;;;17.15;8.38;;;;;;;18.91;68.79;99278.03;5010892;28;20050;-41
2023/09/02 01:13:27;;;;;;;18.58;8.25;;;;;;;18.93;68.72;99278.75;5030947;28;20041;-41
2023/09/02 01:15:55;;;;;;;19.45;8.65;;;;;;;18.82;68.59;99255.00;5027671;28;20055;-41
2023/09/02 01:18:25;;;;;;;13.55;7.95;;;;;;;18.95;68.60;99276.84;5028076;28;20041;-41
2023/09/02 01:21:08;;;;;;;15.52;8.55;;;;;;;18.96;68.72;99275.88;5030341;28;20045;-41
2023/09/02 01:23:56;;;;;;;16.20;8.70;;;;;;;18.95;68.59;99272.41;5028366;28;20047;-40
2023/09/02 01:26:36;;;;;;;15.65;8.68;;;;;;;18.96;68.62;99275.88;5027864;28;20060;-41
2023/09/02 01:29:07;;;;;;;16.48;8.23;;;;;;;18.96;68.64;99281.16;5037824;28;20048;-43
2023/09/02 01:31:35;;;;;;;15.82;7.72;;;;;;;18.98;68.69;99287.16;5024463;28;20063;-44
2023/09/02 01:34:02;;;;;;;15.77;8.05;;;;;;;18.95;68.71;99277.69;5025378;28;20048;-42
2023/09/02 01:36:29;;;;;;;14.98;8.55;;;;;;;18.86;68.47;99261.72;5025606;28;20513;-41
2023/09/02 01:38:56;;;;;;;18.20;8.38;;;;;;;19.03;68.48;99288.50;5001642;28;20045;-41
2023/09/02 01:41:22;;;;;;;16.33;8.25;;;;;;;19.00;68.65;99295.78;5040338;28;20042;-40
2023/09/02 01:43:48;;;;;;;15.13;8.35;;;;;;;18.69;68.65;99260.34;4995998;28;20847;-41
2023/09/02 01:46:15;;;;;;;14.13;8.65;;;;;;;18.82;68.83;99284.84;5012231;28;20047;-42
2023/09/02 01:48:40;;;;;;;15.50;9.32;;;;;;;18.83;69.19;99283.03;5020802;28;20051;-41
2023/09/02 01:51:07;;;;;;;12.18;8.02;;;;;;;18.94;68.95;99299.72;5028407;28;20033;-42
2023/09/02 01:53:33;;;;;;;17.30;9.32;;;;;;;18.93;69.24;99300.69;4988822;28;20041;-40
2023/09/02 01:55:59;;;;;;;12.85;8.35;;;;;;;18.93;69.17;99299.84;5011440;28;20115;-41
2023/09/02 01:58:26;;;;;;;15.25;7.65;;;;;;;18.90;69.39;99306.16;5028615;28;20072;-41
2023/09/02 02:00:52;;;;;;;13.90;8.77;;;;;;;18.86;69.58;99291.53;5012138;28;20115;-42
2023/09/02 02:03:27;;;;;;;20.80;8.93;;;;;;;18.85;69.53;99292.50;5027923;28;20144;-40
2023/09/02 02:05:53;;;;;;;12.30;7.60;;;;;;;18.86;69.50;99293.34;5027717;28;20053;-40
2023/09/02 02:08:29;;;;;;;14.15;7.85;;;;;;;18.87;69.86;99289.75;5011924;28;20404;-42
2023/09/02 02:10:58;;;;;;;17.25;8.88;;;;;;;18.53;69.81;99236.06;5022616;28;20085;-44
2023/09/02 02:13:24;;;;;;;17.35;9.05;;;;;;;18.74;69.67;99271.38;5011502;28;20063;-42
2023/09/02 02:15:50;;;;;;;16.23;8.82;;;;;;;18.80;69.90;99276.19;5028296;28;20525;-41
2023/09/02 02:18:16;;;;;;;14.82;8.18;;;;;;;18.67;69.76;99258.78;5027628;28;20037;-40
2023/09/02 02:21:02;;;;;;;16.00;8.52;;;;;;;18.69;70.22;99262.13;5027086;28;20056;-42
2023/09/02 02:23:28;;;;;;;14.63;8.65;;;;;;;18.81;70.15;99287.56;5027840;28;20118;-43
2023/09/02 02:26:01;;;;;;;17.70;8.73;;;;;;;18.80;70.26;99288.53;5010631;28;20041;-41
2023/09/02 02:28:28;;;;;;;13.13;8.35;;;;;;;18.74;70.39;99286.34;5028421;28;20044;-39
2023/09/02 02:30:55;;;;;;;14.63;8.30;;;;;;;18.76;70.53;99287.06;5027308;28;20516;-40
2023/09/02 02:33:21;;;;;;;18.77;10.98;;;;;;;18.77;70.79;99286.97;5025753;28;20061;-43
2023/09/02 02:35:48;;;;;;;15.88;8.60;;;;;;;18.75;70.61;99283.59;5026509;28;20045;-42
2023/09/02 02:38:13;;;;;;;18.67;7.97;;;;;;;18.77;70.53;99294.03;5010548;28;20033;-41
2023/09/02 02:40:40;;;;;;;13.23;8.27;;;;;;;18.79;70.67;99286.88;5026213;28;20051;-42
2023/09/02 02:43:05;;;;;;;16.83;8.63;;;;;;;18.75;70.57;99280.13;5025576;28;20041;-41
2023/09/02 02:45:31;;;;;;;17.75;8.73;;;;;;;18.76;70.69;99290.56;5027522;28;20103;-40
2023/09/02 02:47:57;;;;;;;19.33;8.15;;;;;;;18.52;70.76;99252.84;5011253;28;20045;-40
2023/09/02 02:50:24;;;;;;;17.70;8.80;;;;;;;18.61;70.84;99263.56;5007337;28;20030;-41
2023/09/02 02:52:50;;;;;;;20.83;10.70;;;;;;;18.77;70.60;99289.59;5008192;28;20048;-39
2023/09/02 02:55:17;;;;;;;21.23;11.57;;;;;;;18.77;70.30;99288.75;5023119;28;20044;-40
2023/09/02 02:57:44;;;;;;;15.32;7.85;;;;;;;18.61;70.19;99258.28;5026495;28;20041;-41
2023/09/02 03:00:12;;;;;;;24.35;9.23;;;;;;;18.77;70.22;99281.69;5027682;28;20038;-41
2023/09/02 03:02:38;;;;;;;18.63;8.93;;;;;;;18.77;69.97;99284.34;5003758;28;20148;-41
2023/09/02 03:05:04;;;;;;;18.25;8.95;;;;;;;18.75;70.02;99283.59;5035424;28;20049;-40
2023/09/02 03:07:30;;;;;;;17.17;8.18;;;;;;;18.67;70.01;99267.53;5026406;28;20072;-43
2023/09/02 03:09:56;;;;;;;15.48;8.25;;;;;;;18.77;70.05;99275.59;5026947;28;20072;-42
2023/09/02 03:12:22;;;;;;;15.82;8.68;;;;;;;18.77;70.06;99270.31;5001987;28;20378;-43
2023/09/02 03:14:49;;;;;;;17.23;8.30;;;;;;;18.56;70.07;99241.16;5026277;28;20525;-42
2023/09/02 03:17:20;;;;;;;15.70;8.20;;;;;;;18.83;70.03;99280.41;5026868;28;20045;-39
2023/09/02 03:19:48;;;;;;;12.45;7.75;;;;;;;18.84;70.10;99288.19;5020547;28;20037;-41
2023/09/02 03:22:15;;;;;;;14.80;7.95;;;;;;;18.84;69.96;99282.91;5026418;28;20048;-41
2023/09/02 03:24:43;;;;;;;17.02;9.07;;;;;;;18.86;69.99;99288.06;5027251;28;20052;-41
2023/09/02 03:27:09;;;;;;;13.57;8.80;;;;;;;18.88;69.66;99291.44;5025502;28;20037;-41
2023/09/02 03:29:35;;;;;;;13.35;7.88;;;;;;;18.88;69.67;99289.66;5007688;28;20041;-41
2023/09/02 03:32:03;;;;;;;14.23;8.30;;;;;;;18.61;69.63;99246.91;5025822;28;20052;-40
2023/09/02 03:34:29;;;;;;;14.85;8.30;;;;;;;18.92;69.45;99290.25;5009838;28;20107;-41
2023/09/02 03:36:55;;;;;;;18.70;8.88;;;;;;;18.95;69.44;99284.75;5028379;28;20147;-41
2023/09/02 03:39:21;;;;;;;15.52;8.40;;;;;;;18.98;69.38;99284.53;5018839;28;20155;-49
2023/09/02 03:41:47;;;;;;;14.90;8.60;;;;;;;18.99;69.33;99280.94;5026274;28;20065;-42
2023/09/02 03:44:13;;;;;;;14.65;8.00;;;;;;;19.02;69.33;99285.97;5026500;28;20077;-42
2023/09/02 03:46:39;;;;;;;15.88;8.63;;;;;;;19.06;69.14;99284.78;5021132;28;20121;-40
2023/09/02 03:49:05;;;;;;;18.80;8.50;;;;;;;19.10;69.04;99283.59;5024964;28;20041;-41
2023/09/02 03:51:31;;;;;;;19.60;9.23;;;;;;;19.14;68.66;99292.13;5040748;28;20042;-41
2023/09/02 03:53:59;;;;;;;22.45;9.40;;;;;;;19.17;68.35;99291.88;5026878;28;20433;-41
2023/09/02 03:56:25;;;;;;;23.23;8.88;;;;;;;19.09;68.31;99281.09;5008865;28;20038;-40
2023/09/02 03:58:52;;;;;;;25.45;9.15;;;;;;;19.12;68.39;99280.84;5026791;28;20049;-42
2023/09/02 04:01:18;;;;;;;18.40;9.05;;;;;;;19.32;68.14;99301.25;5025290;28;20045;-41
2023/09/02 04:03:45;;;;;;;14.77;8.75;;;;;;;19.23;67.93;99281.72;5009312;28;20041;-41
2023/09/02 04:06:13;;;;;;;13.23;8.00;;;;;;;19.44;67.74;99300.31;5024975;28;20041;-40
2023/09/02 04:08:39;;;;;;;16.23;8.75;;;;;;;19.52;67.54;99297.13;5018917;28;20060;-42
2023/09/02 04:11:05;;;;;;;16.17;8.60;;;;;;;19.57;67.47;99297.63;5026408;28;20048;-41
2023/09/02 04:13:31;;;;;;;17.60;8.98;;;;;;;19.64;67.05;99298.81;5025853;28;20080;-42
2023/09/02 04:16:10;;;;;;;16.33;8.98;;;;;;;19.69;66.94;99289.56;5025973;28;20133;-41
2023/09/02 04:18:37;;;;;;;16.27;8.63;;;;;;;19.77;66.55;99303.03;5025498;28;20111;-41
2023/09/02 04:21:04;;;;;;;15.27;8.90;;;;;;;19.69;66.22;99271.13;5025705;28;20049;-41
2023/09/02 04:23:32;;;;;;;17.52;8.70;;;;;;;19.93;65.73;99296.53;5023436;28;20052;-41
2023/09/02 04:26:03;;;;;;;17.02;8.50;;;;;;;20.05;65.52;99303.47;5019088;28;20561;-41
2023/09/02 04:28:30;;;;;;;14.50;8.40;;;;;;;20.17;65.04;99305.97;5025200;28;20037;-39
2023/09/02 04:30:57;;;;;;;13.25;8.35;;;;;;;20.24;64.76;99304.53;5025267;28;20044;-42
2023/09/02 04:33:25;;;;;;;;;;;;;;;20.36;64.46;99307.19;5009196;28;20124;-41
2023/09/02 04:35:52;;;;;;;11.75;8.20;;;;;;;20.34;64.27;99293.25;5009181;28;20122;-41
2023/09/02 04:38:19;;;;;;;13.32;8.63;;;;;;;20.17;63.99;99276.94;5025708;28;20056;-41
2023/09/02 04:40:48;;;;;;;14.70;8.88;;;;;;;20.43;63.88;99305.72;5009787;28;20037;-42
2023/09/02 04:43:15;;;;;;;15.63;9.00;;;;;;;20.47;63.87;99307.97;5025733;28;20044;-41
2023/09/02 04:45:43;;;;;;;20.10;8.48;;;;;;;20.55;63.70;99313.50;4976354;28;20045;-41
2023/09/02 04:48:12;;;;;;;;;;;;;;;20.65;63.41;99316.22;5025435;28;20045;-41
2023/09/02 04:50:39;;;;;;;17.48;8.40;;;;;;;20.69;63.16;99313.22;5024124;28;20408;-40
2023/09/02 04:53:07;;;;;;;18.07;9.27;;;;;;;20.78;63.11;99316.06;5025494;28;20132;-42
2023/09/02 04:55:39;;;;;;;19.92;8.93;;;;;;;20.71;62.69;99292.78;5009989;28;20377;-41
2023/09/02 04:58:07;;;;;;;18.15;9.35;;;;;;;20.91;62.38;99312.28;5024946;28;20128;-40
2023/09/02 05:00:37;;;;;;;15.23;8.63;;;;;;;20.97;62.45;99309.13;5023948;28;20038;-40
2023/09/02 05:03:03;;;;;;;20.63;9.30;;;;;;;21.00;62.11;99305.38;5008583;28;20041;-40
2023/09/02 05:05:29;;;;;;;14.30;8.45;;;;;;;21.06;62.02;99308.38;5006272;28;20287;-41
2023/09/02 05:07:56;;;;;;;15.88;8.35;;;;;;;21.10;61.80;99308.94;4991596;28;20060;-41
2023/09/02 05:10:24;;;;;;;18.10;8.85;;;;;;;21.10;61.82;99306.28;5023780;28;20037;-42
2023/09/02 05:12:51;;;;;;;25.67;9.60;;;;;;;21.12;61.70;99310.50;5019337;28;20106;-41
2023/09/02 05:15:18;;;;;;;17.25;9.23;;;;;;;21.16;61.64;99326.13;5008639;28;20943;-39
2023/09/02 05:17:46;;;;;;;15.48;9.00;;;;;;;21.22;61.21;99315.03;5025199;28;20469;-43
2023/09/02 05:20:12;;;;;;;18.63;8.95;;;;;;;21.27;61.31;99313.69;5004011;28;20139;-41
2023/09/02 05:22:38;;;;;;;18.98;9.00;;;;;;;21.33;61.06;99323.75;5024218;28;20056;-40
2023/09/02 05:25:05;;;;;;;16.33;8.55;;;;;;;21.36;61.05;99320.00;5026435;28;20045;-40
2023/09/02 05:27:32;;;;;;;18.02;8.85;;;;;;;21.39;61.20;99323.25;5024790;28;20056;-42
2023/09/02 05:29:58;;;;;;;15.80;8.38;;;;;;;21.41;61.22;99326.56;5049665;28;20034;-43
2023/09/02 05:32:24;;;;;;;16.63;9.18;;;;;;;21.33;61.24;99305.25;5020404;28;20056;-39
2023/09/02 05:34:50;;;;;;;17.48;8.55;;;;;;;21.49;61.15;99323.28;5021381;28;20052;-41
2023/09/02 05:37:16;;;;;;;17.23;8.35;;;;;;;21.23;61.12;99277.91;5016621;28;20041;-42
2023/09/02 05:39:42;;;;;;;18.10;9.02;;;;;;;21.54;60.85;99323.75;5034284;28;20540;-42
2023/09/02 05:42:08;;;;;;;18.90;9.23;;;;;;;21.54;60.97;99318.44;5021015;28;20037;-40
2023/09/02 05:44:35;;;;;;;21.20;9.75;;;;;;;21.54;61.02;99324.59;5024718;28;20052;-42
2023/09/02 05:47:02;;;;;;;14.48;8.25;;;;;;;21.54;60.94;99321.94;4989402;28;20525;-42
2023/09/02 05:49:29;;;;;;;28.27;10.38;;;;;;;21.61;61.21;99329.34;5023089;28;20227;-47
2023/09/02 05:51:55;;;;;;;15.27;8.40;;;;;;;21.67;61.17;99329.66;5012670;28;20068;-41
2023/09/02 05:54:21;;;;;;;18.38;9.02;;;;;;;21.47;60.80;99288.19;5026148;28;20056;-39
2023/09/02 05:56:47;;;;;;;18.85;8.23;;;;;;;21.74;60.77;99336.09;5029596;28;20041;-42
2023/09/02 05:59:13;;;;;;;22.67;9.07;;;;;;;21.78;60.33;99334.03;5027861;28;20044;-43
2023/09/02 06:01:39;;;;;;;13.98;8.45;;;;;;;21.68;60.46;99309.31;5025036;28;20033;-43
2023/09/02 06:04:06;;;;;;;15.43;9.02;;;;;;;21.85;60.35;99322.78;5029703;28;20037;-41
2023/09/02 06:06:32;;;;;;;22.40;9.30;;;;;;;21.90;60.55;99331.16;5025924;28;20254;-43
2023/09/02 06:08:59;;;;;;;15.00;8.82;;;;;;;21.98;60.16;99336.66;5028642;28;20690;-43
2023/09/02 06:11:25;;;;;;;42.00;9.88;;;;;;;22.08;59.78;99341.16;5027806;28;20124;-43
2023/09/02 06:13:51;;;;;;;23.45;9.07;;;;;;;22.17;59.69;99333.25;5028474;28;20049;-44
2023/09/02 06:16:17;;;;;;;21.75;9.73;;;;;;;22.32;59.45;99341.66;5025107;28;20040;-41
2023/09/02 06:18:43;;;;;;;26.88;10.27;;;;;;;22.45;59.15;99336.97;5023378;28;20051;-44
2023/09/02 06:21:13;;;;;;;25.60;9.45;;;;;;;22.53;58.59;99334.47;4994450;28;20115;-42
2023/09/02 06:23:43;;;;;;;24.67;9.68;;;;;;;22.65;57.93;99341.31;5009192;28;20536;-43
2023/09/02 06:26:09;;;;;;;18.83;8.95;;;;;;;22.84;57.55;99337.03;5025893;28;20095;-40
2023/09/02 06:28:35;;;;;;;20.80;9.45;;;;;;;22.95;57.22;99343.03;5049719;28;20100;-41
2023/09/02 06:31:08;;;;;;;23.25;8.73;;;;;;;23.05;57.05;99337.75;5027673;28;20069;-42
2023/09/02 06:33:35;;;;;;;14.57;9.18;;;;;;;23.16;56.52;99342.91;5008007;28;20540;-42
2023/09/02 06:36:09;;;;;;;19.48;8.30;;;;;;;23.24;56.16;99346.50;5025262;28;20482;-41
2023/09/02 06:38:35;;;;;;;22.10;10.38;;;;;;;23.39;55.69;99352.25;5021756;28;20045;-41
2023/09/02 06:41:09;;;;;;;18.23;10.05;;;;;;;23.49;54.99;99336.34;5058444;28;20130;-41
2023/09/02 06:43:35;;;;;;;26.60;9.55;;;;;;;23.82;54.40;99358.88;5026763;28;20045;-43
2023/09/02 06:46:11;;;;;;;20.92;8.25;;;;;;;23.63;54.14;99326.09;5009639;28;20052;-42
2023/09/02 06:48:37;;;;;;;18.13;9.20;;;;;;;23.93;53.93;99359.53;5027066;28;20088;-41
2023/09/02 06:51:03;;;;;;;16.42;8.07;;;;;;;23.96;53.66;99361.91;5028279;28;20425;-43
2023/09/02 06:53:28;;;;;;;13.68;7.72;;;;;;;23.89;53.38;99365.28;5020842;28;20044;-47
2023/09/02 06:55:54;;;;;;;17.05;8.80;;;;;;;23.82;53.12;99361.50;5028976;28;20677;-44
2023/09/02 06:58:20;;;;;;;16.73;8.20;;;;;;;23.77;52.77;99369.06;5043934;28;20073;-45
2023/09/02 07:00:48;;;;;;;19.55;7.68;;;;;;;23.67;52.59;99373.56;5013263;28;20037;-56
2023/09/02 07:03:14;;;;;;;21.48;8.23;;;;;;;23.29;53.01;99375.25;5012822;28;20049;-54
2023/09/02 07:05:40;;;;;;;20.20;8.60;;;;;;;23.27;53.31;99387.00;5028810;28;20084;-55
2023/09/02 07:08:06;;;;;;;20.33;8.73;;;;;;;22.99;53.58;99386.84;5028351;28;20059;-55
2023/09/02 07:10:32;;;;;;;16.55;8.20;;;;;;;23.19;53.28;99385.03;5029829;28;20045;-53
2023/09/02 07:12:58;;;;;;;23.42;8.55;;;;;;;23.39;53.10;99384.09;5023791;28;20060;-64
2023/09/02 07:15:23;;;;;;;18.15;8.88;;;;;;;23.24;53.12;99391.59;5026005;28;20082;-45
2023/09/02 07:17:50;;;;;;;18.85;8.80;;;;;;;23.06;53.55;99387.16;5022259;28;20057;-46
2023/09/02 07:20:15;;;;;;;19.90;9.18;;;;;;;23.08;53.84;99398.47;5028036;28;20032;-52
2023/09/02 07:22:41;;;;;;;17.10;8.80;;;;;;;23.07;54.10;99397.63;5000410;28;20611;-47
2023/09/02 07:25:07;;;;;;;19.23;9.23;;;;;;;23.04;54.20;99378.47;5009125;28;20045;-38
2023/09/02 07:27:33;;;;;;;17.98;9.15;;;;;;;22.77;54.50;99382.66;5026490;28;20079;-38
2023/09/02 07:30:00;;;;;;;16.88;9.80;;;;;;;22.80;54.59;99400.09;5027808;28;20513;-40
2023/09/02 07:32:26;;;;;;;24.52;8.77;;;;;;;22.44;54.95;99353.00;5024896;28;20108;-38
2023/09/02 07:34:52;;;;;;;16.55;9.10;;;;;;;22.57;54.99;99369.47;5022785;28;20139;-38
2023/09/02 07:37:18;;;;;;;18.10;9.18;;;;;;;22.91;54.53;99396.50;5013060;28;20497;-41
2023/09/02 07:39:43;;;;;;;17.98;8.88;;;;;;;22.88;54.58;99396.75;5025892;28;20041;-38
2023/09/02 07:42:09;;;;;;;13.77;8.63;;;;;;;22.69;54.75;99401.03;5019968;28;20456;-39
2023/09/02 07:44:35;;;;;;;13.73;8.70;;;;;;;22.48;55.22;99404.72;5023779;28;20048;-38
2023/09/02 07:47:01;;;;;;;12.75;8.13;;;;;;;22.58;55.04;99400.28;5021785;28;20048;-38
2023/09/02 07:49:27;;;;;;;13.55;8.63;;;;;;;22.61;54.84;99403.50;4977349;28;20039;-37
2023/09/02 07:51:53;;;;;;;21.15;8.43;;;;;;;22.58;55.00;99402.94;5025461;28;20049;-38
2023/09/02 07:54:19;;;;;;;25.58;9.20;;;;;;;22.68;54.94;99411.75;5009344;28;20382;-38
2023/09/02 07:56:45;;;;;;;16.15;8.38;;;;;;;22.59;54.92;99413.41;5022915;28;20150;-38
2023/09/02 07:59:10;;;;;;;14.60;8.63;;;;;;;22.45;55.41;99405.00;5024871;28;20057;-39
2023/09/02 08:01:36;;;;;;;16.63;8.23;;;;;;;22.38;55.60;99383.50;5023512;28;20110;-39
2023/09/02 08:04:02;;;;;;;15.90;8.52;;;;;;;22.50;55.93;99398.34;5025970;28;20045;-38
2023/09/02 08:06:28;;;;;;;18.60;8.30;;;;;;;22.53;55.91;99405.16;5025102;28;20116;-39
2023/09/02 08:08:54;;;;;;;18.73;8.60;;;;;;;22.54;56.35;99404.19;5021913;28;20049;-38
2023/09/02 08:11:20;;;;;;;16.17;8.55;;;;;;;22.60;56.44;99407.16;5008511;28;20069;-40
2023/09/02 08:13:46;;;;;;;21.55;8.63;;;;;;;22.62;56.31;99405.19;5020581;28;20575;-37
2023/09/02 08:16:12;;;;;;;18.42;8.70;;;;;;;22.72;56.04;99410.53;5023832;28;20037;-37
2023/09/02 08:18:38;;;;;;;15.73;8.35;;;;;;;22.77;56.13;99413.59;5025384;28;20094;-38
2023/09/02 08:21:11;;;;;;;27.73;8.60;;;;;;;22.77;56.27;99411.81;5025320;28;20046;-39
2023/09/02 08:23:38;;;;;;;20.40;9.20;;;;;;;22.66;56.19;99416.38;5022245;28;20091;-39
2023/09/02 08:26:12;;;;;;;22.88;9.73;;;;;;;22.24;56.54;99373.28;5027292;28;20057;-38
2023/09/02 08:28:40;;;;;;;21.17;9.35;;;;;;;22.32;57.01;99424.63;5023053;28;20048;-39
2023/09/02 08:31:05;;;;;;;20.73;10.18;;;;;;;22.20;57.32;99424.81;5002917;28;20041;-38
2023/09/02 08:33:31;;;;;;;20.88;9.88;;;;;;;22.19;57.37;99428.47;5033914;28;20583;-38
2023/09/02 08:35:57;;;;;;;21.67;10.27;;;;;;;22.08;57.50;99416.16;5026898;28;20095;-38
2023/09/02 08:38:26;;;;;;;21.25;9.65;;;;;;;22.02;58.14;99442.31;5022147;28;20037;-40
2023/09/02 08:40:53;;;;;;;21.38;9.90;;;;;;;21.88;58.80;99440.78;5008894;28;20083;-39
2023/09/02 08:43:20;;;;;;;20.65;10.13;;;;;;;21.78;59.01;99413.41;5024783;28;20041;-38
2023/09/02 08:45:49;;;;;;;22.17;10.70;;;;;;;22.03;59.15;99451.94;5016657;28;20045;-39
2023/09/02 08:48:23;;;;;;;24.60;12.00;;;;;;;21.93;59.64;99451.81;5021722;28;20223;-38
2023/09/02 08:50:50;;;;;;;21.23;10.57;;;;;;;21.80;60.24;99454.69;5022366;28;20056;-38
2023/09/02 08:53:17;;;;;;;26.25;10.27;;;;;;;21.79;60.68;99453.00;4976661;28;20079;-41
2023/09/02 08:55:45;;;;;;;28.75;11.70;;;;;;;21.85;60.94;99460.41;4995847;28;20052;-37
2023/09/02 08:58:12;;;;;;;25.77;10.85;;;;;;;21.80;61.26;99465.25;4990449;28;20049;-39
2023/09/02 09:00:39;;;;;;;23.90;11.93;;;;;;;21.79;61.46;99466.22;5004364;28;20045;-38
2023/09/02 09:03:06;;;;;;;17.90;11.32;;;;;;;21.71;62.16;99470.50;5020170;28;20033;-40
2023/09/02 09:05:33;;;;;;;26.95;12.48;;;;;;;21.61;62.94;99464.28;5024512;28;20135;-38
2023/09/02 09:07:59;;;;;;;24.05;11.75;;;;;;;21.60;63.50;99474.03;5006725;28;20119;-39
2023/09/02 09:10:25;;;;;;;25.02;12.00;;;;;;;21.53;64.19;99462.28;5006668;28;20034;-39
2023/09/02 09:12:52;;;;;;;27.00;12.10;;;;;;;21.40;65.48;99478.34;5022272;28;20049;-40
2023/09/02 09:15:18;;;;;;;20.02;12.05;;;;;;;21.36;66.13;99478.69;4982690;28;20099;-40
2023/09/02 09:17:44;;;;;;;23.90;12.95;;;;;;;21.21;66.79;99464.91;5023274;28;20076;-39
2023/09/02 09:20:11;;;;;;;22.02;12.45;;;;;;;21.21;67.95;99499.28;4989532;28;20057;-40
2023/09/02 09:22:38;;;;;;;25.13;13.55;;;;;;;21.03;69.02;99492.81;5004828;28;21296;-40
2023/09/02 09:25:04;;;;;;;25.30;13.98;;;;;;;20.95;69.79;99495.22;5043613;28;20091;-45
2023/09/02 09:27:30;;;;;;;24.88;14.27;;;;;;;20.66;70.93;99474.63;5024363;28;20053;-40
2023/09/02 09:29:56;;;;;;;28.25;14.77;;;;;;;20.78;71.17;99486.00;5001044;28;20529;-38
2023/09/02 09:32:23;;;;;;;23.20;13.85;;;;;;;20.82;71.44;99494.53;4994774;28;20052;-41
2023/09/02 09:34:50;;;;;;;25.75;14.10;;;;;;;20.85;71.77;99503.06;5011619;28;20037;-39
2023/09/02 09:37:16;;;;;;;24.50;14.18;;;;;;;20.95;71.67;99496.06;5008720;28;20112;-39
2023/09/02 09:39:43;;;;;;;27.85;15.00;;;;;;;21.16;71.65;99509.41;5026192;28;20107;-38
2023/09/02 09:42:11;;;;;;;29.98;14.70;;;;;;;21.33;71.56;99511.53;5030335;28;20087;-38
2023/09/02 09:44:52;;;;;;;26.30;13.80;;;;;;;21.48;71.73;99510.28;5027882;28;20049;-42
2023/09/02 09:47:18;;;;;;;28.10;14.43;;;;;;;21.52;71.51;99509.03;5027717;28;20296;-47
2023/09/02 09:49:44;;;;;;;24.17;14.77;;;;;;;21.54;71.08;99515.06;5022740;28;20044;-37
2023/09/02 09:52:12;;;;;;;27.42;14.88;;;;;;;21.61;71.17;99514.56;5022610;28;20059;-37
2023/09/02 09:54:40;;;;;;;25.35;14.70;;;;;;;21.56;71.31;99507.00;5032182;28;20079;-38
2023/09/02 09:57:08;;;;;;;32.85;15.13;;;;;;;21.55;71.52;99489.44;5047240;28;20149;-38
2023/09/02 09:59:34;;;;;;;21.08;14.40;;;;;;;21.72;71.36;99528.56;5029423;28;20049;-39
2023/09/02 10:02:04;;;;;;;25.30;14.73;;;;;;;21.75;71.15;99528.31;5020490;28;20881;-41
2023/09/02 10:04:30;;;;;;;25.90;14.80;;;;;;;21.78;71.12;99528.06;5008650;28;20099;-41
2023/09/02 10:06:58;;;;;;;28.42;15.57;;;;;;;21.76;71.07;99530.03;5021806;28;20049;-40
2023/09/02 10:09:24;;;;;;;30.60;15.88;;;;;;;21.76;71.39;99531.81;5017955;28;20045;-40
2023/09/02 10:11:50;;;;;;;25.80;14.57;;;;;;;21.71;71.68;99524.25;5018923;28;20045;-41
2023/09/02 10:14:17;;;;;;;27.98;16.35;;;;;;;21.70;72.14;99519.94;5024801;28;20089;-40
2023/09/02 10:16:44;;;;;;;28.23;15.60;;;;;;;21.54;72.45;99507.13;5011079;28;20057;-41
2023/09/02 10:19:11;;;;;;;59.55;24.27;;;;;;;21.74;72.93;99523.16;5025193;28;20370;-41
2023/09/02 10:21:39;;;;;;;38.30;18.55;;;;;;;21.81;73.46;99525.19;5025228;28;20527;-42
2023/09/02 10:24:10;;;;;;;38.05;18.67;;;;;;;21.88;73.60;99536.91;5025707;28;20037;-48
2023/09/02 10:26:40;;;;;;;40.65;20.55;;;;;;;21.94;74.13;99533.78;5026610;28;20501;-47
2023/09/02 10:29:09;;;;;;;35.13;17.23;;;;;;;22.01;74.46;99530.63;5031448;28;21478;-46
2023/09/02 10:31:39;;;;;;;41.22;20.98;;;;;;;22.06;74.47;99539.03;5016121;28;20054;-51
2023/09/02 10:34:15;;;;;;;33.65;17.55;;;;;;;22.11;74.42;99534.19;5034165;28;20041;-44
2023/09/02 10:36:45;;;;;;;32.40;15.90;;;;;;;22.14;74.09;99532.13;5008148;28;20151;-52
2023/09/02 10:39:22;;;;;;;26.05;15.95;;;;;;;22.18;73.44;99532.72;5004211;28;20038;-48
2023/09/02 10:41:49;;;;;;;28.10;16.77;;;;;;;22.18;72.90;99535.38;5001339;28;20084;-59
2023/09/02 10:44:17;;;;;;;27.10;16.38;;;;;;;21.96;72.37;99496.63;5024139;28;20120;-52
2023/09/02 10:46:44;;;;;;;25.75;16.08;;;;;;;22.16;72.58;99532.84;5010817;28;20151;-40
2023/09/02 10:49:10;;;;;;;28.10;16.27;;;;;;;22.07;72.38;99541.56;5027962;28;20054;-40
2023/09/02 10:51:39;;;;;;;28.25;16.92;;;;;;;21.98;72.78;99546.78;5022362;28;20045;-42
2023/09/02 10:54:06;;;;;;;25.05;15.73;;;;;;;21.91;72.67;99546.44;5034462;28;20050;-38
2023/09/02 10:56:33;;;;;;;25.85;16.98;;;;;;;21.98;72.44;99552.09;5025456;28;20038;-39
2023/09/02 10:59:01;;;;;;;29.48;17.23;;;;;;;22.06;72.64;99552.28;5025465;28;20798;-42
2023/09/02 11:02:00;;;;;;;27.60;16.00;;;;;;;22.22;73.03;99557.97;5024002;28;20041;-39
2023/09/02 11:04:41;;;;;;;30.73;16.02;;;;;;;22.24;72.61;99564.00;5008019;28;20095;-38
2023/09/02 11:07:24;;;;;;;28.63;16.77;;;;;;;22.24;72.37;99564.78;5027858;28;20048;-39
2023/09/02 11:09:54;;;;;;;24.25;16.27;;;;;;;22.17;72.27;99574.25;5015461;28;20041;-40
2023/09/02 11:12:20;;;;;;;29.02;17.02;;;;;;;22.10;72.32;99562.47;5007261;28;20041;-39
2023/09/02 11:15:07;;;;;;;31.70;16.83;;;;;;;22.08;72.77;99561.78;5027080;28;20095;-38
2023/09/02 11:17:35;;;;;;;30.15;16.92;;;;;;;22.03;72.63;99557.84;5025305;28;20103;-39
2023/09/02 11:20:04;;;;;;;30.40;17.40;;;;;;;22.08;72.43;99559.13;5029398;28;20045;-38
2023/09/02 11:22:59;;;;;;;25.65;16.80;;;;;;;22.18;73.01;99562.69;5020224;28;20091;-38
2023/09/02 11:25:39;;;;;;;30.70;17.50;;;;;;;22.13;73.12;99558.75;5024025;28;20100;-38
2023/09/02 11:28:07;;;;;;;25.42;17.80;;;;;;;21.99;73.81;99546.66;5025344;28;20041;-38